createdAt,value
2017-06-08T00:00:16.816Z,13.50
2017-06-08T00:02:45.107Z,13.50
2017-06-08T00:05:13.381Z,13.60
2017-06-08T00:07:41.666Z,13.60
2017-06-08T00:10:09.933Z,13.50
2017-06-08T00:12:38.212Z,13.50
2017-06-08T00:15:06.486Z,13.50
2017-06-08T00:17:34.763Z,13.50
2017-06-08T00:20:03.052Z,13.40
2017-06-08T00:22:31.328Z,13.40
2017-06-08T00:24:59.611Z,13.30
2017-06-08T00:27:27.908Z,13.30
2017-06-08T00:29:56.191Z,13.20
2017-06-08T00:32:24.466Z,13.20
2017-06-08T00:34:52.744Z,13.10
2017-06-08T00:37:21.016Z,13.00
2017-06-08T00:39:49.300Z,12.90
2017-06-08T00:42:17.568Z,12.90
2017-06-08T00:44:45.839Z,12.90
2017-06-08T00:47:14.132Z,12.80
2017-06-08T00:49:42.395Z,12.80
2017-06-08T00:52:10.671Z,12.70
2017-06-08T00:54:38.943Z,12.70
2017-06-08T00:57:07.227Z,12.60
2017-06-08T00:59:35.495Z,12.60
2017-06-08T01:02:03.785Z,12.50
2017-06-08T01:04:32.048Z,12.50
2017-06-08T01:07:01.102Z,12.40
2017-06-08T01:09:29.370Z,12.40
2017-06-08T01:11:57.657Z,12.40
2017-06-08T01:14:25.913Z,12.30
2017-06-08T01:16:54.207Z,12.30
2017-06-08T01:19:22.479Z,12.20
2017-06-08T01:21:50.762Z,12.20
2017-06-08T01:24:19.026Z,12.20
2017-06-08T01:26:47.310Z,12.10
2017-06-08T01:29:15.602Z,12.10
2017-06-08T01:31:43.874Z,12.20
2017-06-08T01:34:12.164Z,12.20
2017-06-08T01:36:40.429Z,12.20
2017-06-08T01:39:08.715Z,12.30
2017-06-08T01:41:36.992Z,12.20
2017-06-08T01:44:05.279Z,12.20
2017-06-08T01:46:33.551Z,12.20
2017-06-08T01:49:01.847Z,12.20
2017-06-08T01:51:30.884Z,12.20
2017-06-08T01:53:59.172Z,12.20
2017-06-08T01:56:27.436Z,12.20
2017-06-08T01:58:55.714Z,12.20
2017-06-08T02:01:23.991Z,12.30
2017-06-08T02:03:52.275Z,12.30
2017-06-08T02:06:20.544Z,12.30
2017-06-08T02:08:48.812Z,12.20
2017-06-08T02:11:17.093Z,12.20
2017-06-08T02:13:45.363Z,12.20
2017-06-08T02:16:13.653Z,12.20
2017-06-08T02:18:41.919Z,12.20
2017-06-08T02:21:10.203Z,12.20
2017-06-08T02:23:38.473Z,12.20
2017-06-08T02:26:06.755Z,12.20
2017-06-08T02:28:35.019Z,12.30
2017-06-08T02:31:03.302Z,12.10
2017-06-08T02:33:31.566Z,12.00
2017-06-08T02:35:59.854Z,11.90
2017-06-08T02:38:28.127Z,11.80
2017-06-08T02:40:56.428Z,11.90
2017-06-08T02:43:24.690Z,11.90
2017-06-08T02:45:52.954Z,11.90
2017-06-08T02:48:21.230Z,11.90
2017-06-08T02:50:49.502Z,11.90
2017-06-08T02:53:17.783Z,11.80
2017-06-08T02:55:46.058Z,11.80
2017-06-08T02:58:14.347Z,11.70
2017-06-08T03:00:42.615Z,11.70
2017-06-08T03:03:10.899Z,11.70
2017-06-08T03:05:39.171Z,11.70
2017-06-08T03:08:07.456Z,11.60
2017-06-08T03:10:35.745Z,11.60
2017-06-08T03:13:04.049Z,11.60
2017-06-08T03:15:32.605Z,11.50
2017-06-08T03:18:00.872Z,11.50
2017-06-08T03:20:29.172Z,11.50
2017-06-08T03:22:57.444Z,11.50
2017-06-08T03:25:25.735Z,11.50
2017-06-08T03:27:54.015Z,11.50
2017-06-08T03:30:22.327Z,11.50
2017-06-08T03:32:51.375Z,11.50
2017-06-08T03:35:19.660Z,11.40
2017-06-08T03:37:47.928Z,11.50
2017-06-08T03:40:16.220Z,11.50
2017-06-08T03:42:44.482Z,11.60
2017-06-08T03:45:12.794Z,11.60
2017-06-08T03:47:41.069Z,11.60
2017-06-08T03:50:09.363Z,11.70
2017-06-08T03:52:38.474Z,11.70
2017-06-08T03:55:07.555Z,11.80
2017-06-08T03:57:35.833Z,11.70
2017-06-08T04:00:04.888Z,11.70
2017-06-08T04:02:33.170Z,11.70
2017-06-08T04:05:01.459Z,11.70
2017-06-08T04:07:29.728Z,11.70
2017-06-08T04:09:57.999Z,11.70
2017-06-08T04:12:26.283Z,11.80
2017-06-08T04:14:54.554Z,11.80
2017-06-08T04:17:22.835Z,11.80
2017-06-08T04:19:51.108Z,11.80
2017-06-08T04:22:19.412Z,11.80
2017-06-08T04:24:48.466Z,11.80
2017-06-08T04:27:16.745Z,11.80
2017-06-08T04:29:45.024Z,11.90
2017-06-08T04:32:13.312Z,11.90
2017-06-08T04:34:41.593Z,12.00
2017-06-08T04:37:09.893Z,12.10
2017-06-08T04:39:38.192Z,12.20
2017-06-08T04:42:06.492Z,12.10
2017-06-08T04:44:34.806Z,12.20
2017-06-08T04:47:03.077Z,12.30
2017-06-08T04:49:31.359Z,12.40
2017-06-08T04:51:59.733Z,12.70
2017-06-08T04:54:28.024Z,13.20
2017-06-08T04:56:56.304Z,13.90
2017-06-08T04:59:24.615Z,14.40
2017-06-08T05:01:52.882Z,14.90
2017-06-08T05:04:21.950Z,15.80
2017-06-08T05:06:50.256Z,15.90
2017-06-08T05:09:18.573Z,16.30
2017-06-08T05:11:46.858Z,16.60
2017-06-08T05:14:15.178Z,16.90
2017-06-08T05:16:43.468Z,17.20
2017-06-08T05:19:11.876Z,17.40
2017-06-08T05:21:40.210Z,17.40
2017-06-08T05:24:09.270Z,17.60
2017-06-08T05:26:37.566Z,17.60
2017-06-08T05:29:05.839Z,17.70
2017-06-08T05:31:34.136Z,17.80
2017-06-08T05:34:02.425Z,17.90
2017-06-08T05:36:31.489Z,18.40
2017-06-08T05:38:59.761Z,18.40
2017-06-08T05:41:28.074Z,18.60
2017-06-08T05:43:56.352Z,18.90
2017-06-08T05:46:24.627Z,18.70
2017-06-08T05:48:53.744Z,19.00
2017-06-08T05:51:22.072Z,19.00
2017-06-08T05:53:50.372Z,19.00
2017-06-08T05:56:18.652Z,19.20
2017-06-08T05:58:47.715Z,19.40
2017-06-08T06:01:16.003Z,19.40
2017-06-08T06:03:44.304Z,19.40
2017-06-08T06:06:12.585Z,19.30
2017-06-08T06:08:40.901Z,19.30
2017-06-08T06:11:09.184Z,19.10
2017-06-08T06:13:37.482Z,19.20
2017-06-08T06:16:05.749Z,19.10
2017-06-08T06:18:34.061Z,19.10
2017-06-08T06:21:03.132Z,19.10
2017-06-08T06:23:31.406Z,19.10
2017-06-08T06:25:59.713Z,19.10
2017-06-08T06:28:27.993Z,19.10
2017-06-08T06:30:56.287Z,19.20
2017-06-08T06:33:24.584Z,19.30
2017-06-08T06:35:52.877Z,19.50
2017-06-08T06:38:21.169Z,19.60
2017-06-08T06:40:49.456Z,19.60
2017-06-08T06:43:17.749Z,19.40
2017-06-08T06:45:46.823Z,19.30
2017-06-08T06:48:15.091Z,19.30
2017-06-08T06:50:43.397Z,19.30
2017-06-08T06:53:12.444Z,19.20
2017-06-08T06:55:40.749Z,19.20
2017-06-08T06:58:09.033Z,19.30
2017-06-08T07:00:37.371Z,19.30
2017-06-08T07:03:05.713Z,19.00
2017-06-08T07:05:34.749Z,19.00
2017-06-08T07:08:03.041Z,18.90
2017-06-08T07:10:31.327Z,18.90
2017-06-08T07:12:59.614Z,18.90
2017-06-08T07:15:27.912Z,18.90
2017-06-08T07:17:56.288Z,19.00
2017-06-08T07:20:25.332Z,18.70
2017-06-08T07:22:53.630Z,18.70
2017-06-08T07:25:21.937Z,18.70
2017-06-08T07:27:50.268Z,18.60
2017-06-08T07:30:18.547Z,18.60
2017-06-08T07:32:46.841Z,18.70
2017-06-08T07:35:15.249Z,18.70
2017-06-08T07:37:43.559Z,18.80
2017-06-08T07:40:11.840Z,18.90
2017-06-08T07:42:40.240Z,19.00
2017-06-08T07:45:08.514Z,19.10
2017-06-08T07:47:36.860Z,19.20
2017-06-08T07:50:05.184Z,19.40
2017-06-08T07:52:33.568Z,19.40
2017-06-08T07:55:01.865Z,19.60
2017-06-08T07:57:30.175Z,19.80
2017-06-08T07:59:58.477Z,19.90
2017-06-08T08:02:38.623Z,19.90
2017-06-08T08:05:06.920Z,20.10
2017-06-08T08:07:35.283Z,20.20
2017-06-08T08:10:03.677Z,20.30
2017-06-08T08:12:31.986Z,20.40
2017-06-08T08:15:00.810Z,20.50
2017-06-08T08:17:29.262Z,20.70
2017-06-08T08:19:57.548Z,20.70
2017-06-08T08:22:25.828Z,20.80
2017-06-08T08:24:54.153Z,20.60
2017-06-08T08:27:22.432Z,20.50
2017-06-08T08:29:50.724Z,20.60
2017-06-08T08:32:19.113Z,20.70
2017-06-08T08:34:47.457Z,20.80
2017-06-08T08:37:16.370Z,20.70
2017-06-08T08:39:44.964Z,20.80
2017-06-08T08:42:13.382Z,20.60
2017-06-08T08:44:41.942Z,20.70
2017-06-08T08:47:11.081Z,20.90
2017-06-08T08:49:40.897Z,20.90
2017-06-08T08:52:11.722Z,21.00
2017-06-08T08:54:39.999Z,21.10
2017-06-08T08:57:08.360Z,21.30
2017-06-08T08:59:36.639Z,21.40
2017-06-08T09:02:05.693Z,21.70
2017-06-08T09:04:33.972Z,21.70
2017-06-08T09:07:02.273Z,21.60
2017-06-08T09:09:30.549Z,21.40
2017-06-08T09:11:58.852Z,21.60
2017-06-08T09:14:27.903Z,21.50
2017-06-08T09:16:56.180Z,21.50
2017-06-08T09:19:24.477Z,21.70
2017-06-08T09:21:52.756Z,21.90
2017-06-08T09:24:21.053Z,22.10
2017-06-08T09:26:50.090Z,22.00
2017-06-08T09:29:18.385Z,22.00
2017-06-08T09:31:46.662Z,22.00
2017-06-08T09:34:14.951Z,22.10
2017-06-08T09:36:43.232Z,22.10
2017-06-08T09:39:11.519Z,22.00
2017-06-08T09:41:39.800Z,21.90
2017-06-08T09:44:08.861Z,22.00
2017-06-08T09:46:37.135Z,22.00
2017-06-08T09:49:05.425Z,21.90
2017-06-08T09:51:34.464Z,21.90
2017-06-08T09:54:02.774Z,21.90
2017-06-08T09:56:31.042Z,22.20
2017-06-08T09:58:59.310Z,22.50
2017-06-08T10:01:27.611Z,22.70
2017-06-08T10:03:55.991Z,22.70
2017-06-08T10:06:24.273Z,22.80
2017-06-08T10:08:52.544Z,22.90
2017-06-08T10:11:20.854Z,23.20
2017-06-08T10:13:49.891Z,23.40
2017-06-08T10:16:18.213Z,23.30
2017-06-08T10:18:47.256Z,23.40
2017-06-08T10:21:15.555Z,23.50
2017-06-08T10:23:43.844Z,23.40
2017-06-08T10:26:12.144Z,23.40
2017-06-08T10:28:40.417Z,23.50
2017-06-08T10:31:08.720Z,23.50
2017-06-08T10:33:37.004Z,23.60
2017-06-08T10:36:05.318Z,23.40
2017-06-08T10:38:33.600Z,23.60
2017-06-08T10:41:01.878Z,23.80
2017-06-08T10:43:30.177Z,23.80
2017-06-08T10:45:58.456Z,23.80
2017-06-08T10:48:27.535Z,23.90
2017-06-08T10:50:55.812Z,23.90
2017-06-08T10:53:24.100Z,24.10
2017-06-08T10:55:52.382Z,24.10
2017-06-08T10:58:20.709Z,24.00
2017-06-08T11:00:48.986Z,24.10
2017-06-08T11:03:17.280Z,24.20
2017-06-08T11:05:45.562Z,23.80
2017-06-08T11:08:13.861Z,23.90
2017-06-08T11:10:42.137Z,23.80
2017-06-08T11:13:10.456Z,23.80
2017-06-08T11:15:38.736Z,24.00
2017-06-08T11:18:07.029Z,23.80
2017-06-08T11:20:35.349Z,23.90
2017-06-08T11:23:03.641Z,23.80
2017-06-08T11:25:31.945Z,23.90
2017-06-08T11:28:00.224Z,23.90
2017-06-08T11:30:28.536Z,24.10
2017-06-08T11:32:56.812Z,23.90
2017-06-08T11:35:25.100Z,23.80
2017-06-08T11:37:53.385Z,23.90
2017-06-08T11:40:21.687Z,24.00
2017-06-08T11:42:50.725Z,24.30
2017-06-08T11:45:19.012Z,24.30
2017-06-08T11:47:47.289Z,24.30
2017-06-08T11:50:15.581Z,24.30
2017-06-08T11:52:43.904Z,24.30
2017-06-08T11:55:12.209Z,24.50
2017-06-08T11:57:40.480Z,24.50
2017-06-08T12:00:08.801Z,24.40
2017-06-08T12:02:37.073Z,24.50
2017-06-08T12:05:05.350Z,24.20
2017-06-08T12:07:33.644Z,24.00
2017-06-08T12:10:02.700Z,24.10
2017-06-08T12:12:30.993Z,24.10
2017-06-08T12:14:59.284Z,24.20
2017-06-08T12:17:27.579Z,24.20
2017-06-08T12:19:56.644Z,24.00
2017-06-08T12:22:24.937Z,23.90
2017-06-08T12:24:53.988Z,24.00
2017-06-08T12:27:22.284Z,23.90
2017-06-08T12:29:50.577Z,23.90
2017-06-08T12:32:18.872Z,23.70
2017-06-08T12:34:47.154Z,23.70
2017-06-08T12:37:16.245Z,23.80
2017-06-08T12:39:44.527Z,23.80
2017-06-08T12:42:13.566Z,24.10
2017-06-08T12:44:41.861Z,24.10
2017-06-08T12:47:10.152Z,24.10
2017-06-08T12:49:38.441Z,24.10
2017-06-08T12:52:06.720Z,24.20
2017-06-08T12:54:35.089Z,24.20
2017-06-08T12:57:03.368Z,24.30
2017-06-08T12:59:31.673Z,24.10
2017-06-08T13:01:59.947Z,24.10
2017-06-08T13:04:28.238Z,24.20
2017-06-08T13:06:56.520Z,24.00
2017-06-08T13:09:24.825Z,23.90
2017-06-08T13:11:53.103Z,23.90
2017-06-08T13:14:21.416Z,24.00
2017-06-08T13:16:50.483Z,24.20
2017-06-08T13:19:18.785Z,24.10
2017-06-08T13:21:47.836Z,24.20
2017-06-08T13:24:16.188Z,24.20
2017-06-08T13:26:44.465Z,24.30
2017-06-08T13:29:12.820Z,24.30
2017-06-08T13:31:41.059Z,24.40
2017-06-08T13:34:09.337Z,24.50
2017-06-08T13:36:37.628Z,24.50
2017-06-08T13:39:05.904Z,24.50
2017-06-08T13:41:34.197Z,24.60
2017-06-08T13:44:02.480Z,24.50
2017-06-08T13:46:30.774Z,24.50
2017-06-08T13:48:59.052Z,24.50
2017-06-08T13:51:27.348Z,24.50
2017-06-08T13:53:55.631Z,24.50
2017-06-08T13:56:23.923Z,24.40
2017-06-08T13:58:52.215Z,24.30
2017-06-08T14:01:20.512Z,24.50
2017-06-08T14:03:48.789Z,24.50
2017-06-08T14:06:17.078Z,24.50
2017-06-08T14:08:45.351Z,24.60
2017-06-08T14:11:14.240Z,24.60
2017-06-08T14:13:42.543Z,24.50
2017-06-08T14:16:10.839Z,24.50
2017-06-08T14:18:39.945Z,24.50
2017-06-08T14:21:09.376Z,24.50
2017-06-08T14:23:37.676Z,24.50
2017-06-08T14:26:05.962Z,24.40
2017-06-08T14:28:34.267Z,24.30
2017-06-08T14:31:02.532Z,24.40
2017-06-08T14:33:30.831Z,24.50
2017-06-08T14:35:59.119Z,24.50
2017-06-08T14:38:27.443Z,24.60
2017-06-08T14:40:55.735Z,24.60
2017-06-08T14:43:24.061Z,24.50
2017-06-08T14:45:52.347Z,24.60
2017-06-08T14:48:20.889Z,24.40
2017-06-08T14:50:49.176Z,24.30
2017-06-08T14:53:17.452Z,24.20
2017-06-08T14:55:49.000Z,24.20
2017-06-08T14:58:18.873Z,24.20
2017-06-08T15:00:47.173Z,24.30
2017-06-08T15:03:15.447Z,24.30
2017-06-08T15:05:43.740Z,24.40
2017-06-08T15:08:12.026Z,24.40
2017-06-08T15:10:40.336Z,24.40
2017-06-08T15:13:09.384Z,24.40
2017-06-08T15:15:37.676Z,24.50
2017-06-08T15:18:06.004Z,24.50
2017-06-08T15:20:34.334Z,24.60
2017-06-08T15:23:02.609Z,24.60
2017-06-08T15:25:31.171Z,24.70
2017-06-08T15:27:59.508Z,24.70
2017-06-08T15:30:27.816Z,24.70
2017-06-08T15:32:56.109Z,24.70
2017-06-08T15:35:24.433Z,24.70
2017-06-08T15:37:52.941Z,24.80
2017-06-08T15:40:21.481Z,24.80
2017-06-08T15:42:49.784Z,24.80
2017-06-08T15:45:18.076Z,24.80
2017-06-08T15:47:46.474Z,24.80
2017-06-08T15:50:14.778Z,24.80
2017-06-08T15:52:43.183Z,24.80
2017-06-08T15:55:11.718Z,24.80
2017-06-08T15:57:40.133Z,24.90
2017-06-08T16:00:08.421Z,25.00
2017-06-08T16:02:36.770Z,25.10
2017-06-08T16:05:05.046Z,25.10
2017-06-08T16:07:33.371Z,25.00
2017-06-08T16:10:02.427Z,25.10
2017-06-08T16:12:30.708Z,25.10
2017-06-08T16:14:59.000Z,25.10
2017-06-08T16:17:27.335Z,25.10
2017-06-08T16:19:55.833Z,25.10
2017-06-08T16:22:24.951Z,25.00
2017-06-08T16:24:53.225Z,24.90
2017-06-08T16:27:21.499Z,25.10
2017-06-08T16:29:49.803Z,25.10
2017-06-08T16:32:18.106Z,25.10
2017-06-08T16:34:56.669Z,25.10
2017-06-08T16:37:35.011Z,25.10
2017-06-08T16:40:16.160Z,25.10
2017-06-08T16:42:55.986Z,25.20
2017-06-08T16:45:34.671Z,25.20
2017-06-08T16:48:06.996Z,25.30
2017-06-08T16:50:46.868Z,25.10
2017-06-08T16:53:28.906Z,25.10
2017-06-08T16:56:18.391Z,25.10
2017-06-08T16:58:56.741Z,25.00
2017-06-08T17:01:38.185Z,25.10
2017-06-08T17:04:17.234Z,25.10
2017-06-08T17:06:47.365Z,25.10
2017-06-08T17:09:21.505Z,25.20
2017-06-08T17:11:58.326Z,25.20
2017-06-08T17:14:34.937Z,25.10
2017-06-08T17:17:11.771Z,25.10
2017-06-08T17:19:52.727Z,25.10
2017-06-08T17:22:31.827Z,25.10
2017-06-08T17:25:16.592Z,25.10
2017-06-08T17:30:36.407Z,25.10
2017-06-08T17:33:20.170Z,25.10
2017-06-08T17:35:56.333Z,25.20
2017-06-08T17:38:32.898Z,25.20
2017-06-08T17:41:08.183Z,25.10
2017-06-08T17:43:59.291Z,25.10
2017-06-08T17:49:17.988Z,25.00
2017-06-08T17:51:55.373Z,25.10
2017-06-08T17:54:34.241Z,25.10
2017-06-08T17:57:18.001Z,24.80
2017-06-08T17:59:50.872Z,25.10
2017-06-08T18:02:25.428Z,25.10
2017-06-08T18:05:03.156Z,25.00
2017-06-08T18:07:40.136Z,25.00
2017-06-08T18:10:15.435Z,24.90
2017-06-08T18:12:56.892Z,24.90
2017-06-08T18:16:07.804Z,24.80
2017-06-08T18:18:42.884Z,24.70
2017-06-08T18:21:26.994Z,24.70
2017-06-08T18:24:04.858Z,24.50
2017-06-08T18:26:44.387Z,24.50
2017-06-08T18:29:26.020Z,24.50
2017-06-08T18:32:04.334Z,24.50
2017-06-08T18:34:52.815Z,24.40
2017-06-08T18:37:35.627Z,24.30
2017-06-08T18:40:14.931Z,24.30
2017-06-08T18:42:54.413Z,24.30
2017-06-08T18:45:23.776Z,24.20
2017-06-08T18:47:52.080Z,24.20
2017-06-08T18:50:20.367Z,24.20
2017-06-08T18:52:48.693Z,24.10
2017-06-08T18:55:16.966Z,24.10
2017-06-08T18:57:45.286Z,24.10
2017-06-08T19:00:13.652Z,24.10
2017-06-08T19:02:42.756Z,24.00
2017-06-08T19:05:11.044Z,24.00
2017-06-08T19:07:39.439Z,23.90
2017-06-08T19:10:07.708Z,23.80
2017-06-08T19:12:36.006Z,23.70
2017-06-08T19:15:04.307Z,23.60
2017-06-08T19:17:32.584Z,23.60
2017-06-08T19:20:00.890Z,23.50
2017-06-08T19:22:29.259Z,23.50
2017-06-08T19:24:57.596Z,23.40
2017-06-08T19:27:25.856Z,23.30
2017-06-08T19:29:54.167Z,23.30
2017-06-08T19:32:22.460Z,23.20
2017-06-08T19:34:50.747Z,23.10
2017-06-08T19:37:19.827Z,23.00
2017-06-08T19:39:48.124Z,23.00
2017-06-08T19:42:16.484Z,22.90
2017-06-08T19:44:44.787Z,22.90
2017-06-08T19:47:13.124Z,22.80
2017-06-08T19:49:41.453Z,22.80
2017-06-08T19:52:09.753Z,22.70
2017-06-08T19:54:38.053Z,22.70
2017-06-08T19:57:06.319Z,22.50
2017-06-08T19:59:34.613Z,22.50
2017-06-08T20:02:02.901Z,22.40
2017-06-08T20:04:31.200Z,22.30
2017-06-08T20:06:59.476Z,22.30
2017-06-08T20:09:27.768Z,22.10
2017-06-08T20:11:56.061Z,22.00
2017-06-08T20:14:24.343Z,21.90
2017-06-08T20:16:52.644Z,21.80
2017-06-08T20:19:20.934Z,21.70
2017-06-08T20:21:50.021Z,21.50
2017-06-08T20:24:18.359Z,21.50
2017-06-08T20:26:46.737Z,21.50
2017-06-08T20:29:15.036Z,21.40
2017-06-08T20:31:43.332Z,21.40
2017-06-08T20:34:11.651Z,21.30
2017-06-08T20:36:39.950Z,21.30
2017-06-08T20:39:08.233Z,21.20
2017-06-08T20:41:36.520Z,21.10
2017-06-08T20:44:04.795Z,21.10
2017-06-08T20:46:33.104Z,21.00
2017-06-08T20:49:01.389Z,20.90
2017-06-08T20:51:30.436Z,20.70
2017-06-08T20:53:58.792Z,20.70
2017-06-08T20:56:27.077Z,20.50
2017-06-08T20:58:55.880Z,20.50
2017-06-08T21:01:24.182Z,20.40
2017-06-08T21:03:52.476Z,20.40
2017-06-08T21:06:20.761Z,20.40
2017-06-08T21:08:49.056Z,20.40
2017-06-08T21:11:17.330Z,20.30
2017-06-08T21:13:45.626Z,20.30
2017-06-08T21:16:13.913Z,20.20
2017-06-08T21:18:42.212Z,20.20
2017-06-08T21:21:10.513Z,20.10
2017-06-08T21:23:38.809Z,20.00
2017-06-08T21:26:07.113Z,19.90
2017-06-08T21:28:35.583Z,19.80
2017-06-08T21:31:03.856Z,19.70
2017-06-08T21:33:32.160Z,19.60
2017-06-08T21:36:00.437Z,19.60
2017-06-08T21:38:28.708Z,19.50
2017-06-08T21:40:57.016Z,19.60
2017-06-08T21:43:25.297Z,19.50
2017-06-08T21:45:53.611Z,19.50
2017-06-08T21:48:21.901Z,19.50
2017-06-08T21:50:50.441Z,19.50
2017-06-08T21:53:18.782Z,19.50
2017-06-08T21:55:47.075Z,19.50
2017-06-08T21:58:15.351Z,19.50
2017-06-08T22:00:43.664Z,19.40
2017-06-08T22:03:11.978Z,19.40
2017-06-08T22:05:40.269Z,19.40
2017-06-08T22:08:08.565Z,19.40
2017-06-08T22:10:36.853Z,19.30
2017-06-08T22:13:05.132Z,19.30
2017-06-08T22:15:33.480Z,19.20
2017-06-08T22:18:01.756Z,19.20
2017-06-08T22:20:30.052Z,19.10
2017-06-08T22:22:58.356Z,19.10
2017-06-08T22:25:26.717Z,19.00
2017-06-08T22:27:55.002Z,18.80
2017-06-08T22:30:23.305Z,18.80
2017-06-08T22:32:52.389Z,18.70
2017-06-08T22:35:20.670Z,18.70
2017-06-08T22:37:48.972Z,18.70
2017-06-08T22:40:17.352Z,18.60
2017-06-08T22:42:45.754Z,18.70
2017-06-08T22:45:14.036Z,18.60
2017-06-08T22:47:42.327Z,18.60
2017-06-08T22:50:10.625Z,18.60
2017-06-08T22:52:38.953Z,18.50
2017-06-08T22:55:07.235Z,18.50
2017-06-08T22:57:35.580Z,18.40
2017-06-08T23:00:04.619Z,18.40
2017-06-08T23:02:32.907Z,18.30
2017-06-08T23:05:01.272Z,18.30
2017-06-08T23:07:29.550Z,18.30
2017-06-08T23:09:57.858Z,18.20
2017-06-08T23:12:26.147Z,18.10
2017-06-08T23:14:54.440Z,18.00
2017-06-08T23:17:22.725Z,18.00
2017-06-08T23:19:51.024Z,17.90
2017-06-08T23:22:19.305Z,17.80
2017-06-08T23:24:47.608Z,17.70
2017-06-08T23:27:15.899Z,17.70
2017-06-08T23:29:44.232Z,17.70
2017-06-08T23:32:12.553Z,17.70
2017-06-08T23:34:40.896Z,17.70
2017-06-08T23:37:09.193Z,17.70
2017-06-08T23:39:37.468Z,17.70
2017-06-08T23:42:05.784Z,17.70
2017-06-08T23:44:34.845Z,17.50
2017-06-08T23:47:03.152Z,17.40
2017-06-08T23:49:32.209Z,17.30
2017-06-08T23:52:00.540Z,17.20
2017-06-08T23:54:28.833Z,17.20
2017-06-08T23:56:57.148Z,17.20
2017-06-08T23:59:25.425Z,17.20
